KANB/ANB METAR and TAF weather

Enter ICAO airport designator
Station Type Date Time Source
KANB METAR 2019/05/23 18:53 UTC NOAA

KANB 231853Z AUTO 00000KT 10SM CLR 31/19 A3020 RMK AO2 SLP218 T03110189


Station Type Date Time Source
KANB Decoded METAR 2019/05/23 18:53 UTC NOAA

ANNISTON METRO AIRPORT, AL, United States (KANB) 33-35N 085-51W 183M
May 23, 2019 - 02:53 PM EDT / 2019.05.23 1853 UTC
Wind: Calm:0
Visibility: 10 mile(s):0
Sky conditions: clear
Temperature: 88.0 F (31.1 C)
Dew Point: 66.0 F (18.9 C)
Relative Humidity: 48%
Pressure (altimeter): 30.2 in. Hg (1022 hPa)
ob: KANB 231853Z AUTO 00000KT 10SM CLR 31/19 A3020 RMK AO2 SLP218 T03110189
cycle: 19

Station Type Date Time Source
KANB TAF 2019/05/23 18:39 UTC NOAA

TAF KANB 231736Z 2318/2418 VRB03KT P6SM FEW120
FM240000 00000KT P6SM SKC
FM241200 17004KT P6SM FEW080

Example: see airport list